createdAt,value
2017-08-14T00:00:02.633Z,47.00
2017-08-14T00:02:30.898Z,48.00
2017-08-14T00:04:59.142Z,48.60
2017-08-14T00:07:26.841Z,48.50
2017-08-14T00:09:55.098Z,50.10
2017-08-14T00:12:22.588Z,49.30
2017-08-14T00:14:50.859Z,50.00
2017-08-14T00:17:19.110Z,50.70
2017-08-14T00:19:46.598Z,50.60
2017-08-14T00:22:14.850Z,51.10
2017-08-14T00:24:42.327Z,51.10
2017-08-14T00:27:10.578Z,51.50
2017-08-14T00:29:38.068Z,51.30
2017-08-14T00:32:06.325Z,51.40
2017-08-14T00:34:33.803Z,51.40
2017-08-14T00:37:02.070Z,52.20
2017-08-14T00:39:30.330Z,51.90
2017-08-14T00:41:57.805Z,51.90
2017-08-14T00:44:26.066Z,52.10
2017-08-14T00:46:53.543Z,52.00
2017-08-14T00:49:21.794Z,52.50
2017-08-14T00:51:49.294Z,52.20
2017-08-14T00:54:17.543Z,51.70
2017-08-14T00:56:45.026Z,51.70
2017-08-14T00:59:13.294Z,52.00
2017-08-14T01:01:41.532Z,52.00
2017-08-14T01:04:08.997Z,51.90
2017-08-14T01:06:36.517Z,52.90
2017-08-14T01:09:04.001Z,51.80
2017-08-14T01:11:31.479Z,52.20
2017-08-14T01:13:58.974Z,52.40
2017-08-14T01:16:27.221Z,53.20
2017-08-14T01:18:54.722Z,53.10
2017-08-14T01:21:22.227Z,52.30
2017-08-14T01:23:49.709Z,52.30
2017-08-14T01:26:17.970Z,52.40
2017-08-14T01:28:45.666Z,52.40
2017-08-14T01:31:13.918Z,53.00
2017-08-14T01:33:41.398Z,53.00
2017-08-14T01:36:09.675Z,52.90
2017-08-14T01:38:37.933Z,52.30
2017-08-14T01:41:05.414Z,52.80
2017-08-14T01:43:33.668Z,52.10
2017-08-14T01:46:01.147Z,52.10
2017-08-14T01:48:29.401Z,51.80
2017-08-14T01:50:56.906Z,51.70
2017-08-14T01:53:24.385Z,52.50
2017-08-14T01:55:51.874Z,52.90
2017-08-14T01:58:19.373Z,53.00
2017-08-14T02:00:46.859Z,53.10
2017-08-14T02:03:14.345Z,52.90
2017-08-14T02:05:41.842Z,53.40
2017-08-14T02:08:09.436Z,53.80
2017-08-14T02:10:36.921Z,53.80
2017-08-14T02:13:04.623Z,54.20
2017-08-14T02:15:33.067Z,53.40
2017-08-14T02:18:00.554Z,53.30
2017-08-14T02:20:28.839Z,53.10
2017-08-14T02:22:57.093Z,52.80
2017-08-14T02:25:24.573Z,52.70
2017-08-14T02:27:52.842Z,53.50
2017-08-14T02:30:20.314Z,53.50
2017-08-14T02:32:48.562Z,53.70
2017-08-14T02:35:16.040Z,53.60
2017-08-14T02:37:44.298Z,53.50
2017-08-14T02:40:11.779Z,53.40
2017-08-14T02:42:40.055Z,53.60
2017-08-14T02:45:08.318Z,53.80
2017-08-14T02:47:35.808Z,53.70
2017-08-14T02:50:03.477Z,53.50
2017-08-14T02:52:30.974Z,53.80
2017-08-14T02:54:58.470Z,53.30
2017-08-14T02:57:26.735Z,52.80
2017-08-14T02:59:54.219Z,52.60
2017-08-14T03:02:22.476Z,52.70
2017-08-14T03:04:50.156Z,52.60
2017-08-14T03:07:18.402Z,53.20
2017-08-14T03:09:45.888Z,53.10
2017-08-14T03:12:14.390Z,53.10
2017-08-14T03:14:41.867Z,52.90
2017-08-14T03:17:09.353Z,54.50
2017-08-14T03:19:36.874Z,54.10
2017-08-14T03:22:04.378Z,53.60
2017-08-14T03:24:31.868Z,54.00
2017-08-14T03:27:00.138Z,53.50
2017-08-14T03:29:28.394Z,53.60
2017-08-14T03:31:55.870Z,53.40
2017-08-14T03:34:24.474Z,54.80
2017-08-14T03:36:52.713Z,54.50
2017-08-14T03:39:20.199Z,54.40
2017-08-14T03:41:48.470Z,54.40
2017-08-14T03:44:16.732Z,53.80
2017-08-14T03:46:44.214Z,53.70
2017-08-14T03:49:12.471Z,54.40
2017-08-14T03:51:39.968Z,54.10
2017-08-14T03:54:07.450Z,54.20
2017-08-14T03:56:34.944Z,54.10
2017-08-14T03:59:02.424Z,54.40
2017-08-14T04:01:30.674Z,54.20
2017-08-14T04:03:58.198Z,54.00
2017-08-14T04:06:25.682Z,54.60
2017-08-14T04:08:53.160Z,55.10
2017-08-14T04:11:20.649Z,55.50
2017-08-14T04:13:48.136Z,55.60
2017-08-14T04:16:16.030Z,55.70
2017-08-14T04:18:43.529Z,55.60
2017-08-14T04:21:11.785Z,56.70
2017-08-14T04:23:39.264Z,56.60
2017-08-14T04:26:07.518Z,56.30
2017-08-14T04:28:35.003Z,56.20
2017-08-14T04:31:03.259Z,56.70
2017-08-14T04:33:30.942Z,56.70
2017-08-14T04:35:59.185Z,56.80
2017-08-14T04:38:26.669Z,56.80
2017-08-14T04:40:54.947Z,56.70
2017-08-14T04:43:23.201Z,54.90
2017-08-14T04:45:51.273Z,54.90
2017-08-14T04:48:19.411Z,54.70
2017-08-14T04:50:47.144Z,53.40
2017-08-14T04:53:16.590Z,54.90
2017-08-14T04:55:44.858Z,55.00
2017-08-14T04:58:12.830Z,55.00
2017-08-14T05:00:40.800Z,54.80
2017-08-14T05:03:08.788Z,55.30
2017-08-14T05:05:36.876Z,55.40
2017-08-14T05:08:05.553Z,56.00
2017-08-14T05:10:34.114Z,55.80
2017-08-14T05:13:01.594Z,55.50
2017-08-14T05:15:29.091Z,56.00
2017-08-14T05:17:57.363Z,56.30
2017-08-14T05:20:25.615Z,56.60
2017-08-14T05:22:53.104Z,56.50
2017-08-14T05:25:21.380Z,57.20
2017-08-14T05:27:49.640Z,55.00
2017-08-14T05:30:17.129Z,54.80
2017-08-14T05:32:45.395Z,53.20
2017-08-14T05:35:13.642Z,52.90
2017-08-14T05:37:41.118Z,52.80
2017-08-14T05:40:08.613Z,53.70
2017-08-14T05:42:36.111Z,54.30
2017-08-14T05:45:03.595Z,54.70
2017-08-14T05:47:31.086Z,54.90
2017-08-14T05:49:58.587Z,54.50
2017-08-14T05:52:26.077Z,54.50
2017-08-14T05:54:53.582Z,55.00
2017-08-14T05:57:21.067Z,54.10
2017-08-14T05:59:48.554Z,53.00
2017-08-14T06:02:16.059Z,52.80
2017-08-14T06:04:43.553Z,53.70
2017-08-14T06:07:11.038Z,54.00
2017-08-14T06:09:39.321Z,52.90
2017-08-14T06:12:07.562Z,52.90
2017-08-14T06:14:35.046Z,52.80
2017-08-14T06:17:02.548Z,51.10
2017-08-14T06:19:30.043Z,51.70
2017-08-14T06:21:57.531Z,51.70
2017-08-14T06:24:25.798Z,52.20
2017-08-14T06:26:53.287Z,52.00
2017-08-14T06:29:20.788Z,51.70
2017-08-14T06:31:48.283Z,52.30
2017-08-14T06:34:16.538Z,52.50
2017-08-14T06:36:44.022Z,52.40
2017-08-14T06:39:12.290Z,52.80
2017-08-14T06:41:39.784Z,52.60
2017-08-14T06:44:07.270Z,52.30
2017-08-14T06:46:35.000Z,52.20
2017-08-14T06:49:02.475Z,51.70
2017-08-14T06:51:29.974Z,51.40
2017-08-14T06:53:57.475Z,51.90
2017-08-14T06:56:24.976Z,52.40
2017-08-14T06:58:52.463Z,52.80
2017-08-14T07:01:19.971Z,52.70
2017-08-14T07:03:47.445Z,52.50
2017-08-14T07:06:14.923Z,52.50
2017-08-14T07:08:42.414Z,52.60
2017-08-14T07:11:10.685Z,51.20
2017-08-14T07:13:38.933Z,51.00
2017-08-14T07:16:06.434Z,50.90
2017-08-14T07:18:34.695Z,52.40
2017-08-14T07:21:02.959Z,52.10
2017-08-14T07:23:30.451Z,52.10
2017-08-14T07:25:58.702Z,51.60
2017-08-14T07:28:26.190Z,51.50
2017-08-14T07:30:53.690Z,51.30
2017-08-14T07:33:21.185Z,51.20
2017-08-14T07:35:49.442Z,49.20
2017-08-14T07:38:16.934Z,49.10
2017-08-14T07:40:45.210Z,48.70
2017-08-14T07:43:13.454Z,48.30
2017-08-14T07:45:40.945Z,48.20
2017-08-14T07:48:09.191Z,49.70
2017-08-14T07:50:36.692Z,49.60
2017-08-14T07:53:04.204Z,48.60
2017-08-14T07:55:31.690Z,48.00
2017-08-14T07:57:59.943Z,47.70
2017-08-14T08:00:27.426Z,47.60
2017-08-14T08:02:55.680Z,48.00
2017-08-14T08:05:23.166Z,47.90
2017-08-14T08:07:51.435Z,46.80
2017-08-14T08:10:18.919Z,46.70
2017-08-14T08:12:46.409Z,47.40
2017-08-14T08:15:13.919Z,46.80
2017-08-14T08:17:42.175Z,46.60
2017-08-14T08:20:09.653Z,46.50
2017-08-14T08:22:37.914Z,46.10
2017-08-14T08:25:05.408Z,45.30
2017-08-14T08:27:32.931Z,45.30
2017-08-14T08:30:00.435Z,45.20
2017-08-14T08:32:27.927Z,44.40
2017-08-14T08:34:55.415Z,44.70
2017-08-14T08:37:22.909Z,45.50
2017-08-14T08:39:50.389Z,45.90
2017-08-14T08:42:17.906Z,45.90
2017-08-14T08:44:46.163Z,45.00
2017-08-14T08:47:13.654Z,45.10
2017-08-14T08:49:41.132Z,45.20
2017-08-14T08:52:08.629Z,44.40
2017-08-14T08:54:36.114Z,43.80
2017-08-14T08:57:04.355Z,44.60
2017-08-14T08:59:31.849Z,44.60
2017-08-14T09:02:00.099Z,43.60
2017-08-14T09:04:27.583Z,43.50
2017-08-14T09:06:55.085Z,44.30
2017-08-14T09:09:22.561Z,44.10
2017-08-14T09:11:50.038Z,45.00
2017-08-14T09:14:17.543Z,42.90
2017-08-14T09:16:45.019Z,43.30
2017-08-14T09:19:12.506Z,44.40
2017-08-14T09:21:40.004Z,44.00
2017-08-14T09:24:08.250Z,44.00
2017-08-14T09:26:35.725Z,44.00
2017-08-14T09:29:03.229Z,42.70
2017-08-14T09:31:30.706Z,41.80
2017-08-14T09:33:58.188Z,42.30
2017-08-14T09:36:25.674Z,42.50
2017-08-14T09:38:53.922Z,44.30
2017-08-14T09:41:21.402Z,43.70
2017-08-14T09:43:50.604Z,45.20
2017-08-14T09:46:18.065Z,44.50
2017-08-14T09:48:46.318Z,44.10
2017-08-14T09:51:13.801Z,44.00
2017-08-14T09:53:42.103Z,43.70
2017-08-14T09:56:09.591Z,44.00
2017-08-14T09:58:37.091Z,44.70
2017-08-14T10:01:05.337Z,37.60
2017-08-14T10:03:32.823Z,36.90
2017-08-14T10:06:00.314Z,35.90
2017-08-14T10:08:27.813Z,38.30
2017-08-14T10:10:55.307Z,40.00
2017-08-14T10:13:23.561Z,41.20
2017-08-14T10:15:51.042Z,41.10
2017-08-14T10:18:19.296Z,41.50
2017-08-14T10:20:46.788Z,41.30
2017-08-14T10:23:14.272Z,40.30
2017-08-14T10:25:41.759Z,40.60
2017-08-14T10:28:09.253Z,42.40
2017-08-14T10:30:36.738Z,41.10
2017-08-14T10:33:04.239Z,39.80
2017-08-14T10:35:31.732Z,41.00
2017-08-14T10:37:59.228Z,40.20
2017-08-14T10:40:26.723Z,40.00
2017-08-14T10:42:54.223Z,41.70
2017-08-14T10:45:22.469Z,40.70
2017-08-14T10:47:49.960Z,40.70
2017-08-14T10:50:18.226Z,41.80
2017-08-14T10:52:45.702Z,41.80
2017-08-14T10:55:13.194Z,42.20
2017-08-14T10:57:40.747Z,42.30
2017-08-14T11:00:08.308Z,41.90
2017-08-14T11:02:35.785Z,42.10
2017-08-14T11:05:03.284Z,41.10
2017-08-14T11:07:31.530Z,40.80
2017-08-14T11:09:59.014Z,40.70
2017-08-14T11:12:26.523Z,40.80
2017-08-14T11:14:54.015Z,39.90
2017-08-14T11:17:21.501Z,40.20
2017-08-14T11:19:49.770Z,40.50
2017-08-14T11:22:17.256Z,40.50
2017-08-14T11:24:44.743Z,41.50
2017-08-14T11:27:12.247Z,41.30
2017-08-14T11:29:40.497Z,39.70
2017-08-14T11:32:07.986Z,39.10
2017-08-14T11:34:36.405Z,40.10
2017-08-14T11:37:03.891Z,40.00
2017-08-14T11:39:31.379Z,41.10
2017-08-14T11:41:58.886Z,40.50
2017-08-14T11:44:26.396Z,40.60
2017-08-14T11:46:53.870Z,40.90
2017-08-14T11:49:22.125Z,41.60
2017-08-14T11:51:49.603Z,41.50
2017-08-14T11:54:17.110Z,41.80
2017-08-14T11:56:44.612Z,41.50
2017-08-14T11:59:12.090Z,42.90
2017-08-14T12:01:39.576Z,42.50
2017-08-14T12:04:07.062Z,41.10
2017-08-14T12:06:34.555Z,42.00
2017-08-14T12:09:02.823Z,41.80
2017-08-14T12:11:31.090Z,41.30
2017-08-14T12:13:58.569Z,41.20
2017-08-14T12:16:27.046Z,40.60
2017-08-14T12:18:54.530Z,40.50
2017-08-14T12:21:22.031Z,38.70
2017-08-14T12:23:49.834Z,39.30
2017-08-14T12:26:18.089Z,39.50
2017-08-14T12:28:45.582Z,39.50
2017-08-14T12:31:13.076Z,40.10
2017-08-14T12:33:40.577Z,40.30
2017-08-14T12:36:08.055Z,39.00
2017-08-14T12:38:36.292Z,39.50
2017-08-14T12:41:03.803Z,39.50
2017-08-14T12:43:31.281Z,39.60
2017-08-14T12:45:58.771Z,39.40
2017-08-14T12:48:26.267Z,40.10
2017-08-14T12:50:54.524Z,40.50
2017-08-14T12:53:22.019Z,40.40
2017-08-14T12:55:49.529Z,41.00
2017-08-14T12:58:17.016Z,41.60
2017-08-14T13:00:45.260Z,40.20
2017-08-14T13:03:12.769Z,40.10
2017-08-14T13:05:40.271Z,39.10
2017-08-14T13:08:07.761Z,40.10
2017-08-14T13:10:36.042Z,41.70
2017-08-14T13:13:04.300Z,41.00
2017-08-14T13:15:31.782Z,40.90
2017-08-14T13:18:00.053Z,42.30
2017-08-14T13:20:27.545Z,42.20
2017-08-14T13:22:55.044Z,42.20
2017-08-14T13:25:22.536Z,40.40
2017-08-14T13:27:50.790Z,40.50
2017-08-14T13:30:18.274Z,40.50
2017-08-14T13:32:46.550Z,40.70
2017-08-14T13:35:14.798Z,40.20
2017-08-14T13:37:42.274Z,40.20
2017-08-14T13:40:09.790Z,41.20
2017-08-14T13:42:37.273Z,40.70
2017-08-14T13:45:04.746Z,41.20
2017-08-14T13:47:32.274Z,43.40
2017-08-14T13:49:59.819Z,41.20
2017-08-14T13:52:27.340Z,40.60
2017-08-14T13:54:55.617Z,41.60
2017-08-14T13:57:23.863Z,41.80
2017-08-14T13:59:51.350Z,41.80
2017-08-14T14:02:19.629Z,42.00
2017-08-14T14:04:47.885Z,41.40
2017-08-14T14:07:15.370Z,41.30
2017-08-14T14:09:43.642Z,42.60
2017-08-14T14:12:12.917Z,41.60
2017-08-14T14:14:40.402Z,41.50
2017-08-14T14:17:08.692Z,41.30
2017-08-14T14:19:36.936Z,41.50
2017-08-14T14:22:04.413Z,41.30
2017-08-14T14:24:31.923Z,41.10
2017-08-14T14:26:59.406Z,41.20
2017-08-14T14:29:26.886Z,41.60
2017-08-14T14:31:54.406Z,41.70
2017-08-14T14:34:21.890Z,40.40
2017-08-14T14:36:49.410Z,39.80
2017-08-14T14:39:16.934Z,40.20
2017-08-14T14:41:45.251Z,40.30
2017-08-14T14:44:12.789Z,40.30
2017-08-14T14:46:40.347Z,39.50
2017-08-14T14:49:07.901Z,40.70
2017-08-14T14:51:36.151Z,41.00
2017-08-14T14:54:03.725Z,41.00
2017-08-14T14:56:31.216Z,40.30
2017-08-14T14:58:58.715Z,40.60
2017-08-14T15:01:26.247Z,40.80
2017-08-14T15:03:53.734Z,41.00
2017-08-14T15:06:21.246Z,40.00
2017-08-14T15:08:48.761Z,40.00
2017-08-14T15:11:16.249Z,40.20
2017-08-14T15:13:44.517Z,40.40
2017-08-14T15:16:12.815Z,39.70
2017-08-14T15:18:40.320Z,39.60
2017-08-14T15:21:07.819Z,40.20
2017-08-14T15:23:36.107Z,40.30
2017-08-14T15:26:04.351Z,39.50
2017-08-14T15:28:31.843Z,39.50
2017-08-14T15:30:59.342Z,40.00
2017-08-14T15:33:26.850Z,40.20
2017-08-14T15:35:55.094Z,40.00
2017-08-14T15:38:22.627Z,40.60
2017-08-14T15:40:50.125Z,40.40
2017-08-14T15:43:17.667Z,40.80
2017-08-14T15:45:45.214Z,39.70
2017-08-14T15:48:12.699Z,40.00
2017-08-14T15:50:40.189Z,40.20
2017-08-14T15:53:08.501Z,40.00
2017-08-14T15:55:36.017Z,39.90
2017-08-14T15:58:04.266Z,41.30
2017-08-14T16:00:31.770Z,40.60
2017-08-14T16:02:59.250Z,40.20
2017-08-14T16:05:26.761Z,40.90
2017-08-14T16:07:54.278Z,39.50
2017-08-14T16:10:21.794Z,38.90
2017-08-14T16:12:50.072Z,39.20
2017-08-14T16:15:18.349Z,39.50
2017-08-14T16:17:46.650Z,38.90
2017-08-14T16:20:14.176Z,38.90
2017-08-14T16:22:41.680Z,39.40
2017-08-14T16:25:09.164Z,39.40
2017-08-14T16:27:36.639Z,38.80
2017-08-14T16:30:04.185Z,38.90
2017-08-14T16:32:32.000Z,40.10
2017-08-14T16:35:00.254Z,39.10
2017-08-14T16:37:27.784Z,39.00
2017-08-14T16:39:55.291Z,39.10
2017-08-14T16:42:23.542Z,39.90
2017-08-14T16:44:51.052Z,39.80
2017-08-14T16:47:18.547Z,39.50
2017-08-14T16:49:46.040Z,38.90
2017-08-14T16:52:14.313Z,39.40
2017-08-14T16:54:42.565Z,39.60
2017-08-14T16:57:10.072Z,39.60
2017-08-14T16:59:37.628Z,39.80
2017-08-14T17:02:05.115Z,39.30
2017-08-14T17:04:32.629Z,40.40
2017-08-14T17:07:00.149Z,40.00
2017-08-14T17:09:27.624Z,40.30
2017-08-14T17:11:55.134Z,39.80
2017-08-14T17:14:22.652Z,40.20
2017-08-14T17:16:50.141Z,40.20
2017-08-14T17:19:18.431Z,41.00
2017-08-14T17:21:45.950Z,41.00
2017-08-14T17:24:13.487Z,39.50
2017-08-14T17:26:40.982Z,39.50
2017-08-14T17:29:08.511Z,39.30
2017-08-14T17:31:36.022Z,40.30
2017-08-14T17:34:03.538Z,40.80
2017-08-14T17:36:31.135Z,40.60
2017-08-14T17:38:59.412Z,41.30
2017-08-14T17:41:27.676Z,39.90
2017-08-14T17:43:55.210Z,39.80
2017-08-14T17:46:22.704Z,40.90
2017-08-14T17:48:50.946Z,40.50
2017-08-14T17:51:18.459Z,40.40
2017-08-14T17:53:46.090Z,40.50
2017-08-14T17:56:13.594Z,41.70
2017-08-14T17:58:41.148Z,41.50
2017-08-14T18:01:08.721Z,41.60
2017-08-14T18:03:36.214Z,42.20
2017-08-14T18:06:03.728Z,42.30
2017-08-14T18:08:31.245Z,42.40
2017-08-14T18:10:58.717Z,42.20
2017-08-14T18:13:26.243Z,41.90
2017-08-14T18:15:53.735Z,42.00
2017-08-14T18:18:21.225Z,42.50
2017-08-14T18:20:48.745Z,42.70
2017-08-14T18:23:16.221Z,42.50
2017-08-14T18:25:44.491Z,42.60
2017-08-14T18:28:11.993Z,42.60
2017-08-14T18:30:39.478Z,42.80
2017-08-14T18:33:06.967Z,43.40
2017-08-14T18:35:34.477Z,43.60
2017-08-14T18:38:01.995Z,43.80
2017-08-14T18:40:30.243Z,43.60
2017-08-14T18:42:57.762Z,43.50
2017-08-14T18:45:25.249Z,43.90
2017-08-14T18:47:52.725Z,43.90
2017-08-14T18:50:21.009Z,44.10
2017-08-14T18:52:48.487Z,43.80
2017-08-14T18:55:16.735Z,44.40
2017-08-14T18:57:44.248Z,44.30
2017-08-14T19:00:11.732Z,44.60
2017-08-14T19:02:39.228Z,44.60
2017-08-14T19:05:07.495Z,44.40
2017-08-14T19:07:35.546Z,44.40
2017-08-14T19:10:02.576Z,44.40
2017-08-14T19:12:30.084Z,44.60
2017-08-14T19:14:57.557Z,45.10
2017-08-14T19:17:25.803Z,44.80
2017-08-14T19:19:53.305Z,44.70
2017-08-14T19:22:20.792Z,44.90
2017-08-14T19:24:48.302Z,44.80
2017-08-14T19:27:15.886Z,44.90
2017-08-14T19:29:43.415Z,45.30
2017-08-14T19:32:10.989Z,44.60
2017-08-14T19:34:39.309Z,44.60
2017-08-14T19:37:06.781Z,44.50
2017-08-14T19:39:34.252Z,44.60
2017-08-14T19:42:02.542Z,45.10
2017-08-14T19:44:30.027Z,44.90
2017-08-14T19:46:58.323Z,45.80
2017-08-14T19:49:25.829Z,45.70
2017-08-14T19:51:53.311Z,45.20
2017-08-14T19:54:20.799Z,45.70
2017-08-14T19:56:49.290Z,45.50
2017-08-14T19:59:16.775Z,45.60
2017-08-14T20:01:44.257Z,45.50
2017-08-14T20:04:11.778Z,45.30
2017-08-14T20:06:39.264Z,45.00
2017-08-14T20:09:06.749Z,45.40
2017-08-14T20:11:34.254Z,45.00
2017-08-14T20:14:01.741Z,45.20
2017-08-14T20:16:29.228Z,45.20
2017-08-14T20:18:57.704Z,45.40
2017-08-14T20:21:25.204Z,45.10
2017-08-14T20:23:52.685Z,45.50
2017-08-14T20:26:20.198Z,45.50
2017-08-14T20:28:47.678Z,45.70
2017-08-14T20:31:15.163Z,45.60
2017-08-14T20:33:42.664Z,45.50
2017-08-14T20:36:10.155Z,45.30
2017-08-14T20:38:37.638Z,45.50
2017-08-14T20:41:05.143Z,45.40
2017-08-14T20:43:32.618Z,45.30
2017-08-14T20:46:00.103Z,45.50
2017-08-14T20:48:27.653Z,46.30
2017-08-14T20:50:55.142Z,45.80
2017-08-14T20:53:22.631Z,46.50
2017-08-14T20:55:50.137Z,45.80
2017-08-14T20:58:17.613Z,45.60
2017-08-14T21:00:45.090Z,46.00
2017-08-14T21:03:12.606Z,45.90
2017-08-14T21:05:40.087Z,46.40
2017-08-14T21:08:07.565Z,45.70
2017-08-14T21:10:35.083Z,45.70
2017-08-14T21:13:02.583Z,46.10
2017-08-14T21:15:30.073Z,45.70
2017-08-14T21:17:57.579Z,45.60
2017-08-14T21:20:25.129Z,45.80
2017-08-14T21:22:52.619Z,45.80
2017-08-14T21:25:20.144Z,45.90
2017-08-14T21:27:47.623Z,46.10
2017-08-14T21:30:15.105Z,46.10
2017-08-14T21:32:42.621Z,46.70
2017-08-14T21:35:10.101Z,46.90
2017-08-14T21:37:37.578Z,47.00
2017-08-14T21:40:05.084Z,47.80
2017-08-14T21:42:32.582Z,48.10
2017-08-14T21:45:00.070Z,48.70
2017-08-14T21:47:28.351Z,49.80
2017-08-14T21:49:56.602Z,50.10
2017-08-14T21:52:24.078Z,50.00
2017-08-14T21:54:51.584Z,49.80
2017-08-14T21:57:19.083Z,49.70
2017-08-14T21:59:46.565Z,49.20
2017-08-14T22:02:14.074Z,49.20
2017-08-14T22:04:41.557Z,49.80
2017-08-14T22:07:09.043Z,49.60
2017-08-14T22:09:37.466Z,50.60
2017-08-14T22:12:05.147Z,50.50
2017-08-14T22:14:33.197Z,50.60
2017-08-14T22:17:01.169Z,51.20
2017-08-14T22:19:29.343Z,50.10
2017-08-14T22:21:57.004Z,50.00
2017-08-14T22:24:25.489Z,49.40
2017-08-14T22:26:53.561Z,49.80
2017-08-14T22:29:21.633Z,49.70
2017-08-14T22:31:49.765Z,50.90
2017-08-14T22:34:18.221Z,50.80
2017-08-14T22:36:46.616Z,50.20
2017-08-14T22:39:14.908Z,49.90
2017-08-14T22:41:43.904Z,49.90
2017-08-14T22:44:12.154Z,49.90
2017-08-14T22:46:39.649Z,49.80
2017-08-14T22:49:07.133Z,50.00
2017-08-14T22:51:34.627Z,49.80
2017-08-14T22:54:02.134Z,50.30
2017-08-14T22:56:29.609Z,50.10
2017-08-14T22:58:57.095Z,49.70
2017-08-14T23:01:24.602Z,49.70
2017-08-14T23:03:52.086Z,49.80
2017-08-14T23:06:19.570Z,49.80
2017-08-14T23:08:47.069Z,50.10
2017-08-14T23:11:15.314Z,49.90
2017-08-14T23:13:42.803Z,49.80
2017-08-14T23:16:11.078Z,49.60
2017-08-14T23:18:39.334Z,50.10
2017-08-14T23:21:06.809Z,50.00
2017-08-14T23:23:34.311Z,50.00
2017-08-14T23:26:01.794Z,50.20
2017-08-14T23:28:29.274Z,50.10
2017-08-14T23:30:56.787Z,50.20
2017-08-14T23:33:24.274Z,50.20
2017-08-14T23:35:51.762Z,50.70
2017-08-14T23:38:19.350Z,50.70
2017-08-14T23:40:46.826Z,51.00
2017-08-14T23:43:14.293Z,51.00
2017-08-14T23:45:41.806Z,51.00
2017-08-14T23:48:10.062Z,51.10
2017-08-14T23:50:37.571Z,50.90
2017-08-14T23:53:05.079Z,51.20
2017-08-14T23:55:32.564Z,51.80
2017-08-14T23:58:00.814Z,52.70
